sensor_id;sensor_type;location;lat;lon;timestamp;P1;durP1;ratioP1;P2;durP2;ratioP2
11171;SDS011;5642;50.830;12.082;2023-05-10T02:36:09;2.17;;;1.13;;
11171;SDS011;5642;50.830;12.082;2023-05-10T02:38:37;1.38;;;1.27;;
11171;SDS011;5642;50.830;12.082;2023-05-10T02:41:04;1.83;;;1.30;;
11171;SDS011;5642;50.830;12.082;2023-05-10T02:43:32;1.77;;;1.55;;
11171;SDS011;5642;50.830;12.082;2023-05-10T02:46:00;1.33;;;1.23;;
11171;SDS011;5642;50.830;12.082;2023-05-10T02:48:26;2.08;;;1.40;;
11171;SDS011;5642;50.830;12.082;2023-05-10T02:50:56;1.42;;;1.33;;
11171;SDS011;5642;50.830;12.082;2023-05-10T02:53:33;1.60;;;1.40;;
11171;SDS011;5642;50.830;12.082;2023-05-10T02:56:04;1.60;;;1.50;;
11171;SDS011;5642;50.830;12.082;2023-05-10T02:58:34;1.50;;;1.40;;
11171;SDS011;5642;50.830;12.082;2023-05-10T03:01:01;1.60;;;1.50;;
11171;SDS011;5642;50.830;12.082;2023-05-10T03:03:27;1.58;;;1.48;;
11171;SDS011;5642;50.830;12.082;2023-05-10T03:05:54;1.60;;;1.50;;
11171;SDS011;5642;50.830;12.082;2023-05-10T03:08:22;1.85;;;1.70;;
11171;SDS011;5642;50.830;12.082;2023-05-10T03:11:37;1.25;;;1.15;;
11171;SDS011;5642;50.830;12.082;2023-05-10T03:14:10;1.70;;;1.33;;
11171;SDS011;5642;50.830;12.082;2023-05-10T03:16:45;1.50;;;1.40;;
11171;SDS011;5642;50.830;12.082;2023-05-10T03:21:43;1.52;;;1.42;;
11171;SDS011;5642;50.830;12.082;2023-05-10T03:24:16;2.45;;;1.30;;
11171;SDS011;5642;50.830;12.082;2023-05-10T03:26:48;1.50;;;1.40;;
11171;SDS011;5642;50.830;12.082;2023-05-10T03:29:16;1.30;;;1.20;;
11171;SDS011;5642;50.830;12.082;2023-05-10T03:31:45;2.97;;;1.48;;
11171;SDS011;5642;50.830;12.082;2023-05-10T03:34:11;1.50;;;1.40;;
11171;SDS011;5642;50.830;12.082;2023-05-10T06:38:15;1.75;;;1.65;;
11171;SDS011;5642;50.830;12.082;2023-05-10T06:40:41;3.22;;;1.50;;
11171;SDS011;5642;50.830;12.082;2023-05-10T06:43:09;1.50;;;1.40;;
11171;SDS011;5642;50.830;12.082;2023-05-10T06:45:35;1.65;;;1.55;;
11171;SDS011;5642;50.830;12.082;2023-05-10T06:48:02;1.70;;;1.55;;
11171;SDS011;5642;50.830;12.082;2023-05-10T06:50:28;1.45;;;1.35;;
11171;SDS011;5642;50.830;12.082;2023-05-10T06:52:55;1.48;;;1.38;;
11171;SDS011;5642;50.830;12.082;2023-05-10T06:55:22;1.50;;;1.40;;
11171;SDS011;5642;50.830;12.082;2023-05-10T06:57:48;1.92;;;1.50;;
11171;SDS011;5642;50.830;12.082;2023-05-10T07:00:14;1.30;;;1.25;;
11171;SDS011;5642;50.830;12.082;2023-05-10T07:02:42;1.67;;;1.55;;
11171;SDS011;5642;50.830;12.082;2023-05-10T07:05:09;1.42;;;1.33;;
11171;SDS011;5642;50.830;12.082;2023-05-10T07:07:37;1.50;;;1.40;;
11171;SDS011;5642;50.830;12.082;2023-05-10T07:10:04;1.30;;;1.20;;
11171;SDS011;5642;50.830;12.082;2023-05-10T07:12:32;1.20;;;1.15;;
11171;SDS011;5642;50.830;12.082;2023-05-10T07:14:58;1.40;;;1.30;;
11171;SDS011;5642;50.830;12.082;2023-05-10T07:17:26;1.35;;;1.30;;
11171;SDS011;5642;50.830;12.082;2023-05-10T07:19:54;1.42;;;1.38;;
11171;SDS011;5642;50.830;12.082;2023-05-10T07:22:22;1.70;;;1.60;;
11171;SDS011;5642;50.830;12.082;2023-05-10T07:24:49;1.38;;;1.27;;
11171;SDS011;5642;50.830;12.082;2023-05-10T07:27:16;1.60;;;1.50;;
11171;SDS011;5642;50.830;12.082;2023-05-10T07:29:45;1.58;;;1.48;;
11171;SDS011;5642;50.830;12.082;2023-05-10T07:32:12;1.67;;;1.58;;
11171;SDS011;5642;50.830;12.082;2023-05-10T07:34:38;1.63;;;1.50;;
11171;SDS011;5642;50.830;12.082;2023-05-10T08:38:51;1.60;;;1.50;;
11171;SDS011;5642;50.830;12.082;2023-05-10T08:41:20;1.85;;;1.42;;
11171;SDS011;5642;50.830;12.082;2023-05-10T08:43:49;1.60;;;1.50;;
11171;SDS011;5642;50.830;12.082;2023-05-10T08:46:18;2.05;;;1.95;;
11171;SDS011;5642;50.830;12.082;2023-05-10T08:48:47;1.92;;;1.75;;
11171;SDS011;5642;50.830;12.082;2023-05-10T08:51:22;1.77;;;1.67;;
11171;SDS011;5642;50.830;12.082;2023-05-10T08:53:53;1.50;;;1.40;;
11171;SDS011;5642;50.830;12.082;2023-05-10T08:56:20;2.10;;;1.60;;
11171;SDS011;5642;50.830;12.082;2023-05-10T08:58:50;1.77;;;1.67;;
11171;SDS011;5642;50.830;12.082;2023-05-10T09:01:19;1.60;;;1.50;;
11171;SDS011;5642;50.830;12.082;2023-05-10T09:03:47;1.60;;;1.50;;
11171;SDS011;5642;50.830;12.082;2023-05-10T09:06:17;2.75;;;1.60;;
11171;SDS011;5642;50.830;12.082;2023-05-10T09:08:44;1.60;;;1.50;;
11171;SDS011;5642;50.830;12.082;2023-05-10T09:11:12;1.80;;;1.70;;
11171;SDS011;5642;50.830;12.082;2023-05-10T09:13:39;1.50;;;1.40;;
11171;SDS011;5642;50.830;12.082;2023-05-10T09:16:07;1.60;;;1.50;;
11171;SDS011;5642;50.830;12.082;2023-05-10T09:18:35;2.58;;;1.80;;
11171;SDS011;5642;50.830;12.082;2023-05-10T09:21:02;2.00;;;1.65;;
11171;SDS011;5642;50.830;12.082;2023-05-10T09:23:32;1.55;;;1.45;;
11171;SDS011;5642;50.830;12.082;2023-05-10T09:26:02;1.40;;;1.30;;
11171;SDS011;5642;50.830;12.082;2023-05-10T09:29:00;1.27;;;1.17;;
11171;SDS011;5642;50.830;12.082;2023-05-10T09:31:44;1.50;;;1.40;;
11171;SDS011;5642;50.830;12.082;2023-05-10T09:34:28;1.70;;;1.60;;
11171;SDS011;5642;50.830;12.082;2023-05-10T09:36:57;1.85;;;1.30;;
11171;SDS011;5642;50.830;12.082;2023-05-10T09:39:36;1.60;;;1.50;;
11171;SDS011;5642;50.830;12.082;2023-05-10T09:42:04;1.58;;;1.48;;
11171;SDS011;5642;50.830;12.082;2023-05-10T09:44:33;1.60;;;1.50;;
11171;SDS011;5642;50.830;12.082;2023-05-10T09:47:01;1.70;;;1.60;;
11171;SDS011;5642;50.830;12.082;2023-05-10T09:49:31;1.73;;;1.63;;
11171;SDS011;5642;50.830;12.082;2023-05-10T09:52:03;1.42;;;1.33;;
11171;SDS011;5642;50.830;12.082;2023-05-10T09:54:30;1.80;;;1.70;;
11171;SDS011;5642;50.830;12.082;2023-05-10T09:56:58;2.67;;;1.60;;
11171;SDS011;5642;50.830;12.082;2023-05-10T09:59:26;1.67;;;1.58;;
11171;SDS011;5642;50.830;12.082;2023-05-10T10:01:59;1.50;;;1.40;;
11171;SDS011;5642;50.830;12.082;2023-05-10T10:04:26;1.33;;;1.23;;
11171;SDS011;5642;50.830;12.082;2023-05-10T10:07:01;1.70;;;1.60;;
11171;SDS011;5642;50.830;12.082;2023-05-10T10:09:30;1.75;;;1.65;;
11171;SDS011;5642;50.830;12.082;2023-05-10T10:11:56;1.88;;;1.77;;
11171;SDS011;5642;50.830;12.082;2023-05-10T10:14:23;1.92;;;1.83;;
11171;SDS011;5642;50.830;12.082;2023-05-10T10:16:50;1.55;;;1.45;;
11171;SDS011;5642;50.830;12.082;2023-05-10T10:19:21;1.55;;;1.45;;
11171;SDS011;5642;50.830;12.082;2023-05-10T10:21:47;1.60;;;1.50;;
11171;SDS011;5642;50.830;12.082;2023-05-10T10:24:15;1.88;;;1.75;;
11171;SDS011;5642;50.830;12.082;2023-05-10T10:26:42;2.22;;;1.60;;
11171;SDS011;5642;50.830;12.082;2023-05-10T10:29:25;1.35;;;1.25;;
11171;SDS011;5642;50.830;12.082;2023-05-10T10:32:18;1.65;;;1.55;;
11171;SDS011;5642;50.830;12.082;2023-05-10T10:34:53;1.40;;;1.30;;
11171;SDS011;5642;50.830;12.082;2023-05-10T10:37:20;1.50;;;1.40;;
11171;SDS011;5642;50.830;12.082;2023-05-10T10:39:48;1.70;;;1.60;;
11171;SDS011;5642;50.830;12.082;2023-05-10T10:43:21;1.48;;;1.38;;
11171;SDS011;5642;50.830;12.082;2023-05-10T10:45:13;1.35;;;1.25;;
11171;SDS011;5642;50.830;12.082;2023-05-10T10:47:40;1.50;;;1.40;;
11171;SDS011;5642;50.830;12.082;2023-05-10T10:50:09;1.45;;;1.38;;
11171;SDS011;5642;50.830;12.082;2023-05-10T10:52:37;1.30;;;1.25;;
11171;SDS011;5642;50.830;12.082;2023-05-10T10:55:07;1.50;;;1.40;;
11171;SDS011;5642;50.830;12.082;2023-05-10T10:57:51;1.40;;;1.30;;
11171;SDS011;5642;50.830;12.082;2023-05-10T11:00:26;1.40;;;1.30;;
11171;SDS011;5642;50.830;12.082;2023-05-10T11:03:09;1.50;;;1.40;;
11171;SDS011;5642;50.830;12.082;2023-05-10T11:05:46;1.30;;;1.20;;
11171;SDS011;5642;50.830;12.082;2023-05-10T11:08:28;1.40;;;1.30;;
11171;SDS011;5642;50.830;12.082;2023-05-10T11:13:28;1.20;;;1.20;;
11171;SDS011;5642;50.830;12.082;2023-05-10T11:21:44;1.50;;;1.40;;
11171;SDS011;5642;50.830;12.082;2023-05-10T11:24:18;1.30;;;1.20;;
11171;SDS011;5642;50.830;12.082;2023-05-10T11:26:48;1.50;;;1.40;;
11171;SDS011;5642;50.830;12.082;2023-05-10T11:29:15;1.23;;;1.20;;
11171;SDS011;5642;50.830;12.082;2023-05-10T11:31:42;1.20;;;1.20;;
11171;SDS011;5642;50.830;12.082;2023-05-10T11:34:26;1.40;;;1.30;;
11171;SDS011;5642;50.830;12.082;2023-05-10T11:36:55;1.17;;;1.10;;
11171;SDS011;5642;50.830;12.082;2023-05-10T11:39:27;1.50;;;1.40;;
11171;SDS011;5642;50.830;12.082;2023-05-10T11:41:55;1.35;;;1.25;;
11171;SDS011;5642;50.830;12.082;2023-05-10T11:44:22;1.30;;;1.20;;
11171;SDS011;5642;50.830;12.082;2023-05-10T11:46:49;1.08;;;1.08;;
11171;SDS011;5642;50.830;12.082;2023-05-10T11:49:15;1.30;;;1.20;;
11171;SDS011;5642;50.830;12.082;2023-05-10T11:51:42;1.10;;;1.10;;
11171;SDS011;5642;50.830;12.082;2023-05-10T11:54:09;1.10;;;0.90;;
11171;SDS011;5642;50.830;12.082;2023-05-10T11:56:37;0.90;;;0.90;;
11171;SDS011;5642;50.830;12.082;2023-05-10T11:59:04;0.90;;;0.90;;
11171;SDS011;5642;50.830;12.082;2023-05-10T12:01:31;0.88;;;0.88;;
11171;SDS011;5642;50.830;12.082;2023-05-10T12:03:58;0.90;;;0.90;;
11171;SDS011;5642;50.830;12.082;2023-05-10T12:06:37;1.00;;;1.00;;
11171;SDS011;5642;50.830;12.082;2023-05-10T12:09:06;1.00;;;1.00;;
11171;SDS011;5642;50.830;12.082;2023-05-10T12:11:38;1.02;;;1.02;;
11171;SDS011;5642;50.830;12.082;2023-05-10T12:14:05;1.08;;;1.08;;
11171;SDS011;5642;50.830;12.082;2023-05-10T12:16:33;1.02;;;1.00;;
11171;SDS011;5642;50.830;12.082;2023-05-10T12:19:02;1.08;;;1.08;;
11171;SDS011;5642;50.830;12.082;2023-05-10T12:21:29;0.98;;;0.98;;
11171;SDS011;5642;50.830;12.082;2023-05-10T12:23:59;0.90;;;0.90;;
11171;SDS011;5642;50.830;12.082;2023-05-10T12:26:27;1.05;;;1.05;;
11171;SDS011;5642;50.830;12.082;2023-05-10T12:29:00;1.13;;;1.05;;
11171;SDS011;5642;50.830;12.082;2023-05-10T12:31:52;1.00;;;1.00;;
11171;SDS011;5642;50.830;12.082;2023-05-10T12:34:29;1.13;;;1.10;;
11171;SDS011;5642;50.830;12.082;2023-05-10T13:59:49;1.17;;;1.10;;
11171;SDS011;5642;50.830;12.082;2023-05-10T15:40:08;0.90;;;0.90;;
11171;SDS011;5642;50.830;12.082;2023-05-10T15:42:35;0.85;;;0.85;;
11171;SDS011;5642;50.830;12.082;2023-05-10T15:45:01;0.80;;;0.80;;
11171;SDS011;5642;50.830;12.082;2023-05-10T15:47:29;1.00;;;1.00;;
11171;SDS011;5642;50.830;12.082;2023-05-10T15:49:55;1.00;;;1.00;;
11171;SDS011;5642;50.830;12.082;2023-05-10T15:52:22;0.90;;;0.90;;
11171;SDS011;5642;50.830;12.082;2023-05-10T15:54:49;1.10;;;1.10;;
11171;SDS011;5642;50.830;12.082;2023-05-10T15:57:15;1.02;;;1.02;;
11171;SDS011;5642;50.830;12.082;2023-05-10T15:59:41;1.08;;;1.08;;
11171;SDS011;5642;50.830;12.082;2023-05-10T16:02:09;1.10;;;1.10;;
11171;SDS011;5642;50.830;12.082;2023-05-10T16:04:37;0.90;;;0.90;;
11171;SDS011;5642;50.830;12.082;2023-05-10T16:07:03;1.10;;;1.10;;
11171;SDS011;5642;50.830;12.082;2023-05-10T16:09:29;1.00;;;1.00;;
11171;SDS011;5642;50.830;12.082;2023-05-10T16:11:55;1.50;;;1.40;;
11171;SDS011;5642;50.830;12.082;2023-05-10T16:14:22;0.80;;;0.80;;
11171;SDS011;5642;50.830;12.082;2023-05-10T16:16:49;1.00;;;1.00;;
11171;SDS011;5642;50.830;12.082;2023-05-10T16:19:15;1.00;;;1.00;;
11171;SDS011;5642;50.830;12.082;2023-05-10T16:21:41;0.80;;;0.80;;
11171;SDS011;5642;50.830;12.082;2023-05-10T16:24:07;0.68;;;0.68;;
11171;SDS011;5642;50.830;12.082;2023-05-10T16:26:33;0.85;;;0.85;;
11171;SDS011;5642;50.830;12.082;2023-05-10T16:29:06;1.10;;;1.10;;
11171;SDS011;5642;50.830;12.082;2023-05-10T16:31:33;0.90;;;0.90;;
11171;SDS011;5642;50.830;12.082;2023-05-10T16:33:59;1.10;;;1.10;;
11171;SDS011;5642;50.830;12.082;2023-05-10T16:36:27;0.80;;;0.80;;
11171;SDS011;5642;50.830;12.082;2023-05-10T16:38:54;1.00;;;1.00;;
11171;SDS011;5642;50.830;12.082;2023-05-10T16:41:20;0.82;;;0.82;;
11171;SDS011;5642;50.830;12.082;2023-05-10T16:43:46;1.00;;;1.00;;
11171;SDS011;5642;50.830;12.082;2023-05-10T16:46:12;1.10;;;1.00;;
11171;SDS011;5642;50.830;12.082;2023-05-10T16:48:39;0.90;;;0.90;;
11171;SDS011;5642;50.830;12.082;2023-05-10T18:32:35;0.80;;;0.80;;
11171;SDS011;5642;50.830;12.082;2023-05-10T18:40:54;1.05;;;1.02;;
11171;SDS011;5642;50.830;12.082;2023-05-10T18:43:23;1.00;;;0.90;;
11171;SDS011;5642;50.830;12.082;2023-05-10T18:45:48;0.82;;;0.82;;
11171;SDS011;5642;50.830;12.082;2023-05-10T18:48:15;0.80;;;0.80;;
11171;SDS011;5642;50.830;12.082;2023-05-10T18:50:42;0.85;;;0.85;;
11171;SDS011;5642;50.830;12.082;2023-05-10T18:53:09;1.10;;;1.10;;
11171;SDS011;5642;50.830;12.082;2023-05-10T18:55:35;1.08;;;1.08;;
11171;SDS011;5642;50.830;12.082;2023-05-10T18:58:02;1.00;;;1.00;;
11171;SDS011;5642;50.830;12.082;2023-05-10T19:00:29;1.27;;;1.17;;
11171;SDS011;5642;50.830;12.082;2023-05-10T19:02:55;1.00;;;1.00;;
11171;SDS011;5642;50.830;12.082;2023-05-10T19:05:21;1.08;;;1.08;;
11171;SDS011;5642;50.830;12.082;2023-05-10T19:07:55;1.17;;;1.17;;
11171;SDS011;5642;50.830;12.082;2023-05-10T19:10:21;1.05;;;1.05;;
11171;SDS011;5642;50.830;12.082;2023-05-10T19:12:47;1.02;;;1.02;;
11171;SDS011;5642;50.830;12.082;2023-05-10T19:15:13;1.35;;;1.25;;
11171;SDS011;5642;50.830;12.082;2023-05-10T19:17:39;1.00;;;1.00;;
11171;SDS011;5642;50.830;12.082;2023-05-10T19:20:06;0.98;;;0.98;;
11171;SDS011;5642;50.830;12.082;2023-05-10T19:22:32;0.80;;;0.80;;
11171;SDS011;5642;50.830;12.082;2023-05-10T19:24:59;0.90;;;0.90;;
11171;SDS011;5642;50.830;12.082;2023-05-10T19:27:25;1.00;;;1.00;;
11171;SDS011;5642;50.830;12.082;2023-05-10T19:29:51;1.10;;;1.10;;
11171;SDS011;5642;50.830;12.082;2023-05-10T19:32:18;1.33;;;1.20;;
11171;SDS011;5642;50.830;12.082;2023-05-10T19:34:44;1.17;;;1.08;;
11171;SDS011;5642;50.830;12.082;2023-05-10T19:37:14;0.90;;;0.90;;
11171;SDS011;5642;50.830;12.082;2023-05-10T21:38:57;1.25;;;1.20;;
11171;SDS011;5642;50.830;12.082;2023-05-10T21:41:23;1.20;;;1.20;;
11171;SDS011;5642;50.830;12.082;2023-05-10T21:43:49;1.50;;;1.40;;
11171;SDS011;5642;50.830;12.082;2023-05-10T21:46:15;1.23;;;1.23;;
11171;SDS011;5642;50.830;12.082;2023-05-10T21:48:42;1.60;;;1.50;;
11171;SDS011;5642;50.830;12.082;2023-05-10T21:51:09;1.40;;;1.40;;
11171;SDS011;5642;50.830;12.082;2023-05-10T21:53:35;1.30;;;1.30;;
11171;SDS011;5642;50.830;12.082;2023-05-10T21:56:02;1.20;;;1.20;;
11171;SDS011;5642;50.830;12.082;2023-05-10T21:58:28;1.25;;;1.20;;
11171;SDS011;5642;50.830;12.082;2023-05-10T22:00:58;1.48;;;1.38;;
11171;SDS011;5642;50.830;12.082;2023-05-10T22:03:28;1.60;;;1.50;;
11171;SDS011;5642;50.830;12.082;2023-05-10T22:05:56;1.55;;;1.45;;
11171;SDS011;5642;50.830;12.082;2023-05-10T22:08:24;1.40;;;1.30;;
11171;SDS011;5642;50.830;12.082;2023-05-10T22:10:52;1.25;;;1.23;;
11171;SDS011;5642;50.830;12.082;2023-05-10T22:13:18;1.15;;;1.10;;
11171;SDS011;5642;50.830;12.082;2023-05-10T22:15:44;1.00;;;1.00;;
11171;SDS011;5642;50.830;12.082;2023-05-10T22:18:16;1.30;;;1.20;;
11171;SDS011;5642;50.830;12.082;2023-05-10T22:20:45;1.00;;;1.00;;
11171;SDS011;5642;50.830;12.082;2023-05-10T22:23:13;0.90;;;0.90;;
11171;SDS011;5642;50.830;12.082;2023-05-10T22:25:40;1.08;;;1.08;;
11171;SDS011;5642;50.830;12.082;2023-05-10T22:28:08;1.08;;;1.08;;
11171;SDS011;5642;50.830;12.082;2023-05-10T22:30:35;1.00;;;1.00;;
11171;SDS011;5642;50.830;12.082;2023-05-10T22:33:01;1.20;;;1.20;;
11171;SDS011;5642;50.830;12.082;2023-05-10T22:35:27;1.30;;;1.20;;
11171;SDS011;5642;50.830;12.082;2023-05-10T22:37:57;1.20;;;1.20;;
11171;SDS011;5642;50.830;12.082;2023-05-10T23:41:33;0.80;;;0.80;;
11171;SDS011;5642;50.830;12.082;2023-05-10T23:43:59;0.55;;;0.55;;
11171;SDS011;5642;50.830;12.082;2023-05-10T23:46:27;0.57;;;0.57;;
11171;SDS011;5642;50.830;12.082;2023-05-10T23:48:54;0.88;;;0.60;;
11171;SDS011;5642;50.830;12.082;2023-05-10T23:51:22;0.80;;;0.70;;
11171;SDS011;5642;50.830;12.082;2023-05-10T23:53:48;0.70;;;0.70;;
11171;SDS011;5642;50.830;12.082;2023-05-10T23:56:18;1.02;;;0.80;;
11171;SDS011;5642;50.830;12.082;2023-05-10T23:58:45;0.68;;;0.68;;
